sensor_id;sensor_type;location;lat;lon;timestamp;temperature;humidity
37324;DHT22;23205;49.986;18.950;2022-08-19T00:04:50;22.40;99.90
37324;DHT22;23205;49.986;18.950;2022-08-19T00:09:53;22.20;99.90
37324;DHT22;23205;49.986;18.950;2022-08-19T00:14:54;22.10;99.90
37324;DHT22;23205;49.986;18.950;2022-08-19T00:19:54;22.00;99.90
37324;DHT22;23205;49.986;18.950;2022-08-19T00:24:55;21.90;99.90
37324;DHT22;23205;49.986;18.950;2022-08-19T00:29:56;21.80;99.90
37324;DHT22;23205;49.986;18.950;2022-08-19T00:34:59;21.70;99.90
37324;DHT22;23205;49.986;18.950;2022-08-19T00:40:01;21.60;99.90
37324;DHT22;23205;49.986;18.950;2022-08-19T00:45:10;21.60;99.90
37324;DHT22;23205;49.986;18.950;2022-08-19T00:50:15;21.50;99.90
37324;DHT22;23205;49.986;18.950;2022-08-19T00:55:21;21.50;99.90
37324;DHT22;23205;49.986;18.950;2022-08-19T01:00:25;21.30;99.90
37324;DHT22;23205;49.986;18.950;2022-08-19T01:05:28;21.20;99.90
37324;DHT22;23205;49.986;18.950;2022-08-19T01:10:33;21.20;99.90
37324;DHT22;23205;49.986;18.950;2022-08-19T01:15:41;21.20;99.90
37324;DHT22;23205;49.986;18.950;2022-08-19T01:20:44;21.10;99.90
37324;DHT22;23205;49.986;18.950;2022-08-19T01:25:50;21.00;99.90
37324;DHT22;23205;49.986;18.950;2022-08-19T01:30:52;20.90;99.90
37324;DHT22;23205;49.986;18.950;2022-08-19T01:35:53;20.90;99.90
37324;DHT22;23205;49.986;18.950;2022-08-19T01:40:53;21.00;99.90
37324;DHT22;23205;49.986;18.950;2022-08-19T01:45:54;20.90;99.90
37324;DHT22;23205;49.986;18.950;2022-08-19T01:50:55;20.80;99.90
37324;DHT22;23205;49.986;18.950;2022-08-19T01:55:56;20.80;99.90
37324;DHT22;23205;49.986;18.950;2022-08-19T02:00:58;20.70;99.90
37324;DHT22;23205;49.986;18.950;2022-08-19T02:06:00;20.70;99.90
37324;DHT22;23205;49.986;18.950;2022-08-19T02:11:03;20.60;99.90
37324;DHT22;23205;49.986;18.950;2022-08-19T02:16:04;20.60;99.90
37324;DHT22;23205;49.986;18.950;2022-08-19T02:21:05;20.50;99.90
37324;DHT22;23205;49.986;18.950;2022-08-19T02:26:06;20.50;99.90
37324;DHT22;23205;49.986;18.950;2022-08-19T02:31:14;20.50;99.90
37324;DHT22;23205;49.986;18.950;2022-08-19T02:36:16;20.40;99.90
37324;DHT22;23205;49.986;18.950;2022-08-19T02:41:22;20.40;99.90
37324;DHT22;23205;49.986;18.950;2022-08-19T02:46:26;20.40;99.90
37324;DHT22;23205;49.986;18.950;2022-08-19T02:51:30;20.40;99.90
37324;DHT22;23205;49.986;18.950;2022-08-19T02:56:34;20.40;99.90
37324;DHT22;23205;49.986;18.950;2022-08-19T03:01:35;20.40;99.90
37324;DHT22;23205;49.986;18.950;2022-08-19T03:06:39;20.40;99.90
37324;DHT22;23205;49.986;18.950;2022-08-19T03:11:40;20.30;99.90
37324;DHT22;23205;49.986;18.950;2022-08-19T03:16:48;20.30;99.90
37324;DHT22;23205;49.986;18.950;2022-08-19T03:21:49;20.30;99.90
37324;DHT22;23205;49.986;18.950;2022-08-19T03:26:53;20.30;99.90
37324;DHT22;23205;49.986;18.950;2022-08-19T03:32:00;20.20;99.90
37324;DHT22;23205;49.986;18.950;2022-08-19T03:37:06;20.10;99.90
37324;DHT22;23205;49.986;18.950;2022-08-19T03:42:09;20.10;99.90
37324;DHT22;23205;49.986;18.950;2022-08-19T03:47:09;20.10;99.90
37324;DHT22;23205;49.986;18.950;2022-08-19T03:52:16;20.10;99.90
37324;DHT22;23205;49.986;18.950;2022-08-19T03:57:16;20.00;99.90
37324;DHT22;23205;49.986;18.950;2022-08-19T04:02:17;20.00;99.90
37324;DHT22;23205;49.986;18.950;2022-08-19T04:07:18;20.10;99.90
37324;DHT22;23205;49.986;18.950;2022-08-19T04:12:21;20.00;99.90
37324;DHT22;23205;49.986;18.950;2022-08-19T04:17:22;20.10;99.90
37324;DHT22;23205;49.986;18.950;2022-08-19T04:22:23;20.30;99.90
37324;DHT22;23205;49.986;18.950;2022-08-19T04:27:24;20.40;99.90
37324;DHT22;23205;49.986;18.950;2022-08-19T04:32:24;20.60;99.90
37324;DHT22;23205;49.986;18.950;2022-08-19T04:37:26;20.80;99.90
37324;DHT22;23205;49.986;18.950;2022-08-19T04:42:27;21.00;99.90
37324;DHT22;23205;49.986;18.950;2022-08-19T04:47:42;21.10;99.90
37324;DHT22;23205;49.986;18.950;2022-08-19T04:52:44;21.20;99.90
37324;DHT22;23205;49.986;18.950;2022-08-19T04:57:44;21.30;99.90
37324;DHT22;23205;49.986;18.950;2022-08-19T05:02:45;21.30;99.90
37324;DHT22;23205;49.986;18.950;2022-08-19T05:07:46;21.40;99.90
37324;DHT22;23205;49.986;18.950;2022-08-19T05:12:47;21.50;99.90
37324;DHT22;23205;49.986;18.950;2022-08-19T05:17:48;21.50;99.90
37324;DHT22;23205;49.986;18.950;2022-08-19T05:23:10;21.50;99.90
37324;DHT22;23205;49.986;18.950;2022-08-19T05:28:11;21.50;99.90
37324;DHT22;23205;49.986;18.950;2022-08-19T05:33:12;21.60;99.90
37324;DHT22;23205;49.986;18.950;2022-08-19T05:38:13;21.80;99.90
37324;DHT22;23205;49.986;18.950;2022-08-19T05:43:14;21.80;99.90
37324;DHT22;23205;49.986;18.950;2022-08-19T05:48:18;22.00;99.90
37324;DHT22;23205;49.986;18.950;2022-08-19T05:53:20;22.10;99.90
37324;DHT22;23205;49.986;18.950;2022-08-19T05:58:21;22.10;99.90
37324;DHT22;23205;49.986;18.950;2022-08-19T06:03:22;22.40;99.90
37324;DHT22;23205;49.986;18.950;2022-08-19T06:08:23;22.60;99.90
37324;DHT22;23205;49.986;18.950;2022-08-19T06:13:24;22.70;99.90
37324;DHT22;23205;49.986;18.950;2022-08-19T06:18:26;23.00;99.90
37324;DHT22;23205;49.986;18.950;2022-08-19T06:23:28;23.10;99.90
37324;DHT22;23205;49.986;18.950;2022-08-19T06:28:29;23.20;99.90
37324;DHT22;23205;49.986;18.950;2022-08-19T06:33:30;23.30;99.90
37324;DHT22;23205;49.986;18.950;2022-08-19T06:38:31;23.50;99.90
37324;DHT22;23205;49.986;18.950;2022-08-19T06:43:34;23.70;99.90
37324;DHT22;23205;49.986;18.950;2022-08-19T06:48:34;23.80;99.90
37324;DHT22;23205;49.986;18.950;2022-08-19T06:53:35;24.00;99.90
37324;DHT22;23205;49.986;18.950;2022-08-19T06:58:36;24.20;99.90
37324;DHT22;23205;49.986;18.950;2022-08-19T07:03:39;24.40;99.90
37324;DHT22;23205;49.986;18.950;2022-08-19T07:08:40;24.60;99.90
37324;DHT22;23205;49.986;18.950;2022-08-19T07:13:43;24.80;99.90
37324;DHT22;23205;49.986;18.950;2022-08-19T07:18:47;25.00;99.90
37324;DHT22;23205;49.986;18.950;2022-08-19T07:23:49;25.20;99.90
37324;DHT22;23205;49.986;18.950;2022-08-19T07:28:51;25.50;99.90
37324;DHT22;23205;49.986;18.950;2022-08-19T07:33:54;25.80;99.90
37324;DHT22;23205;49.986;18.950;2022-08-19T07:39:00;26.10;99.90
37324;DHT22;23205;49.986;18.950;2022-08-19T07:44:01;26.30;99.90
37324;DHT22;23205;49.986;18.950;2022-08-19T07:49:05;26.50;99.90
37324;DHT22;23205;49.986;18.950;2022-08-19T07:54:06;26.70;99.90
37324;DHT22;23205;49.986;18.950;2022-08-19T07:59:09;26.80;99.90
37324;DHT22;23205;49.986;18.950;2022-08-19T08:04:11;26.90;99.90
37324;DHT22;23205;49.986;18.950;2022-08-19T08:09:33;27.30;99.90
37324;DHT22;23205;49.986;18.950;2022-08-19T08:14:40;27.40;99.90
37324;DHT22;23205;49.986;18.950;2022-08-19T08:19:44;27.70;99.90
37324;DHT22;23205;49.986;18.950;2022-08-19T08:24:45;27.70;99.90
37324;DHT22;23205;49.986;18.950;2022-08-19T08:29:46;27.80;99.90
37324;DHT22;23205;49.986;18.950;2022-08-19T08:35:13;27.70;99.90
37324;DHT22;23205;49.986;18.950;2022-08-19T08:40:42;27.70;99.90
37324;DHT22;23205;49.986;18.950;2022-08-19T08:46:10;27.90;99.70
37324;DHT22;23205;49.986;18.950;2022-08-19T08:51:17;27.80;99.90
37324;DHT22;23205;49.986;18.950;2022-08-19T08:56:22;27.80;99.90
37324;DHT22;23205;49.986;18.950;2022-08-19T09:01:24;27.70;99.90
37324;DHT22;23205;49.986;18.950;2022-08-19T09:11:54;28.10;99.90
37324;DHT22;23205;49.986;18.950;2022-08-19T09:16:58;28.20;99.90
37324;DHT22;23205;49.986;18.950;2022-08-19T09:21:59;28.10;99.90
37324;DHT22;23205;49.986;18.950;2022-08-19T09:27:01;27.90;99.90
37324;DHT22;23205;49.986;18.950;2022-08-19T09:32:03;28.00;99.90
37324;DHT22;23205;49.986;18.950;2022-08-19T09:37:04;28.20;99.90
37324;DHT22;23205;49.986;18.950;2022-08-19T09:42:05;28.10;99.90
37324;DHT22;23205;49.986;18.950;2022-08-19T09:47:14;28.50;97.60
37324;DHT22;23205;49.986;18.950;2022-08-19T09:52:16;28.60;96.60
37324;DHT22;23205;49.986;18.950;2022-08-19T09:57:20;28.60;98.50
37324;DHT22;23205;49.986;18.950;2022-08-19T10:02:21;29.10;96.00
37324;DHT22;23205;49.986;18.950;2022-08-19T10:07:22;29.90;91.90
37324;DHT22;23205;49.986;18.950;2022-08-19T10:12:23;30.20;90.20
37324;DHT22;23205;49.986;18.950;2022-08-19T10:17:24;30.70;83.80
37324;DHT22;23205;49.986;18.950;2022-08-19T10:22:26;30.50;85.30
37324;DHT22;23205;49.986;18.950;2022-08-19T10:27:27;30.60;80.30
37324;DHT22;23205;49.986;18.950;2022-08-19T10:32:27;30.60;79.90
37324;DHT22;23205;49.986;18.950;2022-08-19T10:37:29;30.80;78.10
37324;DHT22;23205;49.986;18.950;2022-08-19T10:42:31;31.90;73.60
37324;DHT22;23205;49.986;18.950;2022-08-19T10:47:33;32.80;78.80
37324;DHT22;23205;49.986;18.950;2022-08-19T10:52:34;34.10;72.30
37324;DHT22;23205;49.986;18.950;2022-08-19T10:57:35;35.70;65.40
37324;DHT22;23205;49.986;18.950;2022-08-19T11:02:36;35.80;62.80
37324;DHT22;23205;49.986;18.950;2022-08-19T11:07:38;36.40;62.40
37324;DHT22;23205;49.986;18.950;2022-08-19T11:12:40;36.40;61.90
37324;DHT22;23205;49.986;18.950;2022-08-19T11:17:41;35.80;64.90
37324;DHT22;23205;49.986;18.950;2022-08-19T11:22:43;35.50;62.30
37324;DHT22;23205;49.986;18.950;2022-08-19T11:27:44;35.70;64.10
37324;DHT22;23205;49.986;18.950;2022-08-19T11:32:46;35.80;62.60
37324;DHT22;23205;49.986;18.950;2022-08-19T11:37:48;36.60;60.70
37324;DHT22;23205;49.986;18.950;2022-08-19T11:42:49;35.60;62.10
37324;DHT22;23205;49.986;18.950;2022-08-19T11:47:56;34.70;64.40
37324;DHT22;23205;49.986;18.950;2022-08-19T11:52:57;34.10;66.40
37324;DHT22;23205;49.986;18.950;2022-08-19T11:57:58;34.90;62.50
37324;DHT22;23205;49.986;18.950;2022-08-19T12:02:59;35.80;60.70
37324;DHT22;23205;49.986;18.950;2022-08-19T12:07:59;35.40;62.00
37324;DHT22;23205;49.986;18.950;2022-08-19T12:13:01;35.40;61.90
37324;DHT22;23205;49.986;18.950;2022-08-19T12:18:02;35.40;61.80
37324;DHT22;23205;49.986;18.950;2022-08-19T12:23:04;35.50;62.00
37324;DHT22;23205;49.986;18.950;2022-08-19T12:28:05;34.90;63.20
37324;DHT22;23205;49.986;18.950;2022-08-19T12:33:06;35.00;64.10
37324;DHT22;23205;49.986;18.950;2022-08-19T12:38:08;35.30;63.60
37324;DHT22;23205;49.986;18.950;2022-08-19T12:43:09;35.80;62.60
37324;DHT22;23205;49.986;18.950;2022-08-19T12:48:12;35.20;64.20
37324;DHT22;23205;49.986;18.950;2022-08-19T12:53:15;35.60;62.20
37324;DHT22;23205;49.986;18.950;2022-08-19T12:58:16;35.40;62.90
37324;DHT22;23205;49.986;18.950;2022-08-19T13:03:17;35.20;62.90
37324;DHT22;23205;49.986;18.950;2022-08-19T13:08:18;35.60;61.90
37324;DHT22;23205;49.986;18.950;2022-08-19T13:13:19;36.50;59.30
37324;DHT22;23205;49.986;18.950;2022-08-19T13:18:22;36.40;59.40
37324;DHT22;23205;49.986;18.950;2022-08-19T13:23:25;34.80;63.40
37324;DHT22;23205;49.986;18.950;2022-08-19T13:28:27;33.90;65.10
37324;DHT22;23205;49.986;18.950;2022-08-19T13:33:50;33.60;66.90
37324;DHT22;23205;49.986;18.950;2022-08-19T13:38:51;33.20;67.50
37324;DHT22;23205;49.986;18.950;2022-08-19T13:43:53;33.50;67.80
37324;DHT22;23205;49.986;18.950;2022-08-19T13:48:55;34.50;66.10
37324;DHT22;23205;49.986;18.950;2022-08-19T13:53:57;34.60;66.00
37324;DHT22;23205;49.986;18.950;2022-08-19T13:58:57;34.60;66.30
37324;DHT22;23205;49.986;18.950;2022-08-19T14:03:58;33.70;68.50
37324;DHT22;23205;49.986;18.950;2022-08-19T14:09:00;33.70;69.30
37324;DHT22;23205;49.986;18.950;2022-08-19T14:14:02;33.70;69.50
37324;DHT22;23205;49.986;18.950;2022-08-19T14:19:03;33.70;69.10
37324;DHT22;23205;49.986;18.950;2022-08-19T14:24:04;33.40;70.20
37324;DHT22;23205;49.986;18.950;2022-08-19T14:29:05;32.80;71.40
37324;DHT22;23205;49.986;18.950;2022-08-19T14:34:06;33.10;71.30
37324;DHT22;23205;49.986;18.950;2022-08-19T14:39:08;33.00;71.20
37324;DHT22;23205;49.986;18.950;2022-08-19T14:44:10;33.00;71.20
37324;DHT22;23205;49.986;18.950;2022-08-19T14:49:14;32.90;71.60
37324;DHT22;23205;49.986;18.950;2022-08-19T14:54:15;32.60;72.50
37324;DHT22;23205;49.986;18.950;2022-08-19T14:59:16;32.20;73.20
37324;DHT22;23205;49.986;18.950;2022-08-19T15:04:17;32.10;74.10
37324;DHT22;23205;49.986;18.950;2022-08-19T15:09:18;31.70;74.90
37324;DHT22;23205;49.986;18.950;2022-08-19T15:14:19;31.30;76.10
37324;DHT22;23205;49.986;18.950;2022-08-19T15:19:21;31.30;76.80
37324;DHT22;23205;49.986;18.950;2022-08-19T15:24:22;31.00;77.60
37324;DHT22;23205;49.986;18.950;2022-08-19T15:29:26;30.90;78.10
37324;DHT22;23205;49.986;18.950;2022-08-19T15:34:27;30.80;78.70
37324;DHT22;23205;49.986;18.950;2022-08-19T15:39:29;30.70;79.80
37324;DHT22;23205;49.986;18.950;2022-08-19T15:44:31;30.50;80.90
37324;DHT22;23205;49.986;18.950;2022-08-19T15:49:32;30.50;81.10
37324;DHT22;23205;49.986;18.950;2022-08-19T15:54:33;30.50;81.00
37324;DHT22;23205;49.986;18.950;2022-08-19T15:59:35;30.40;81.90
37324;DHT22;23205;49.986;18.950;2022-08-19T16:04:55;30.30;82.50
37324;DHT22;23205;49.986;18.950;2022-08-19T16:10:15;30.20;82.80
37324;DHT22;23205;49.986;18.950;2022-08-19T16:15:16;30.00;84.20
37324;DHT22;23205;49.986;18.950;2022-08-19T16:20:17;29.90;84.90
37324;DHT22;23205;49.986;18.950;2022-08-19T16:25:19;29.60;86.30
37324;DHT22;23205;49.986;18.950;2022-08-19T16:30:28;29.60;86.90
37324;DHT22;23205;49.986;18.950;2022-08-19T16:35:29;29.90;84.00
37324;DHT22;23205;49.986;18.950;2022-08-19T16:40:34;29.90;84.80
37324;DHT22;23205;49.986;18.950;2022-08-19T16:45:55;29.90;87.00
37324;DHT22;23205;49.986;18.950;2022-08-19T16:50:59;29.80;85.40
37324;DHT22;23205;49.986;18.950;2022-08-19T16:56:00;29.90;84.40
37324;DHT22;23205;49.986;18.950;2022-08-19T17:01:04;26.60;99.90
37324;DHT22;23205;49.986;18.950;2022-08-19T17:06:32;25.40;99.90
37324;DHT22;23205;49.986;18.950;2022-08-19T17:11:33;25.00;99.90
37324;DHT22;23205;49.986;18.950;2022-08-19T17:16:36;24.70;99.90
37324;DHT22;23205;49.986;18.950;2022-08-19T17:21:37;24.40;99.90
37324;DHT22;23205;49.986;18.950;2022-08-19T17:26:40;24.30;99.90
37324;DHT22;23205;49.986;18.950;2022-08-19T17:31:41;23.80;99.90
37324;DHT22;23205;49.986;18.950;2022-08-19T17:36:41;23.70;99.90
37324;DHT22;23205;49.986;18.950;2022-08-19T17:41:42;23.30;99.90
37324;DHT22;23205;49.986;18.950;2022-08-19T17:46:43;23.30;99.90
37324;DHT22;23205;49.986;18.950;2022-08-19T17:51:46;23.20;99.90
37324;DHT22;23205;49.986;18.950;2022-08-19T17:56:49;23.00;99.90
37324;DHT22;23205;49.986;18.950;2022-08-19T18:01:49;22.80;99.90
37324;DHT22;23205;49.986;18.950;2022-08-19T18:06:52;22.40;99.90
37324;DHT22;23205;49.986;18.950;2022-08-19T18:11:55;22.20;99.90
37324;DHT22;23205;49.986;18.950;2022-08-19T18:16:57;21.90;99.90
37324;DHT22;23205;49.986;18.950;2022-08-19T18:21:58;22.00;99.90
37324;DHT22;23205;49.986;18.950;2022-08-19T18:26:58;22.00;99.90
37324;DHT22;23205;49.986;18.950;2022-08-19T18:31:59;21.80;99.90
37324;DHT22;23205;49.986;18.950;2022-08-19T18:37:00;21.70;99.90
37324;DHT22;23205;49.986;18.950;2022-08-19T18:42:01;21.70;99.90
37324;DHT22;23205;49.986;18.950;2022-08-19T18:47:21;21.60;99.90
37324;DHT22;23205;49.986;18.950;2022-08-19T18:52:41;21.60;99.90
37324;DHT22;23205;49.986;18.950;2022-08-19T18:57:41;21.60;99.90
37324;DHT22;23205;49.986;18.950;2022-08-19T19:02:43;21.60;99.90
37324;DHT22;23205;49.986;18.950;2022-08-19T19:07:44;21.70;99.90
37324;DHT22;23205;49.986;18.950;2022-08-19T19:12:46;21.60;99.90
37324;DHT22;23205;49.986;18.950;2022-08-19T19:17:47;21.70;99.90
37324;DHT22;23205;49.986;18.950;2022-08-19T19:22:49;21.90;99.90
37324;DHT22;23205;49.986;18.950;2022-08-19T19:27:50;22.10;99.90
37324;DHT22;23205;49.986;18.950;2022-08-19T19:32:51;22.40;99.90
37324;DHT22;23205;49.986;18.950;2022-08-19T19:37:53;22.40;99.90
37324;DHT22;23205;49.986;18.950;2022-08-19T19:42:54;22.40;99.90
37324;DHT22;23205;49.986;18.950;2022-08-19T19:47:55;22.50;99.90
37324;DHT22;23205;49.986;18.950;2022-08-19T19:52:59;22.30;99.90
37324;DHT22;23205;49.986;18.950;2022-08-19T19:58:00;22.30;99.90
37324;DHT22;23205;49.986;18.950;2022-08-19T20:03:01;22.30;99.90
37324;DHT22;23205;49.986;18.950;2022-08-19T20:08:02;22.30;99.90
37324;DHT22;23205;49.986;18.950;2022-08-19T20:13:21;21.90;99.90
37324;DHT22;23205;49.986;18.950;2022-08-19T20:18:22;21.80;99.90
37324;DHT22;23205;49.986;18.950;2022-08-19T20:23:24;21.80;99.90
37324;DHT22;23205;49.986;18.950;2022-08-19T20:28:26;21.70;99.90
37324;DHT22;23205;49.986;18.950;2022-08-19T20:33:28;21.80;99.90
37324;DHT22;23205;49.986;18.950;2022-08-19T20:38:31;21.70;99.90
37324;DHT22;23205;49.986;18.950;2022-08-19T20:43:34;21.70;99.90
37324;DHT22;23205;49.986;18.950;2022-08-19T20:48:35;21.70;99.90
37324;DHT22;23205;49.986;18.950;2022-08-19T20:53:40;21.60;99.90
37324;DHT22;23205;49.986;18.950;2022-08-19T20:58:41;21.70;99.90
37324;DHT22;23205;49.986;18.950;2022-08-19T21:03:42;21.60;99.90
37324;DHT22;23205;49.986;18.950;2022-08-19T21:08:46;21.70;99.90
37324;DHT22;23205;49.986;18.950;2022-08-19T21:13:47;21.70;99.90
37324;DHT22;23205;49.986;18.950;2022-08-19T21:18:48;21.70;99.90
37324;DHT22;23205;49.986;18.950;2022-08-19T21:23:51;21.70;99.90
37324;DHT22;23205;49.986;18.950;2022-08-19T21:28:53;21.70;99.90
37324;DHT22;23205;49.986;18.950;2022-08-19T21:33:53;21.60;99.90
37324;DHT22;23205;49.986;18.950;2022-08-19T21:38:55;21.60;99.90
37324;DHT22;23205;49.986;18.950;2022-08-19T21:43:56;21.60;99.90
37324;DHT22;23205;49.986;18.950;2022-08-19T21:48:57;21.50;99.90
37324;DHT22;23205;49.986;18.950;2022-08-19T21:53:58;21.60;99.90
37324;DHT22;23205;49.986;18.950;2022-08-19T21:58:59;21.70;99.90
37324;DHT22;23205;49.986;18.950;2022-08-19T22:04:00;21.70;99.90
37324;DHT22;23205;49.986;18.950;2022-08-19T22:09:01;21.60;99.90
37324;DHT22;23205;49.986;18.950;2022-08-19T22:14:02;21.60;99.90
37324;DHT22;23205;49.986;18.950;2022-08-19T22:19:03;21.70;99.90
37324;DHT22;23205;49.986;18.950;2022-08-19T22:24:04;21.90;99.90
37324;DHT22;23205;49.986;18.950;2022-08-19T22:29:05;21.90;99.90
37324;DHT22;23205;49.986;18.950;2022-08-19T22:34:07;21.80;99.90
37324;DHT22;23205;49.986;18.950;2022-08-19T22:39:09;21.90;99.90
37324;DHT22;23205;49.986;18.950;2022-08-19T22:44:10;21.90;99.90
37324;DHT22;23205;49.986;18.950;2022-08-19T22:49:11;21.90;99.90
37324;DHT22;23205;49.986;18.950;2022-08-19T22:54:12;21.70;99.90
37324;DHT22;23205;49.986;18.950;2022-08-19T22:59:12;21.70;99.90
37324;DHT22;23205;49.986;18.950;2022-08-19T23:04:13;21.60;99.90
37324;DHT22;23205;49.986;18.950;2022-08-19T23:09:14;21.50;99.90
37324;DHT22;23205;49.986;18.950;2022-08-19T23:14:15;21.50;99.90
37324;DHT22;23205;49.986;18.950;2022-08-19T23:19:17;21.50;99.90
37324;DHT22;23205;49.986;18.950;2022-08-19T23:24:18;21.40;99.90
37324;DHT22;23205;49.986;18.950;2022-08-19T23:29:19;21.40;99.90
37324;DHT22;23205;49.986;18.950;2022-08-19T23:34:39;21.50;99.90
37324;DHT22;23205;49.986;18.950;2022-08-19T23:39:40;21.50;99.90
37324;DHT22;23205;49.986;18.950;2022-08-19T23:44:40;21.60;99.90
37324;DHT22;23205;49.986;18.950;2022-08-19T23:49:41;21.60;99.90
37324;DHT22;23205;49.986;18.950;2022-08-19T23:54:42;21.60;99.90
37324;DHT22;23205;49.986;18.950;2022-08-19T23:59:43;21.50;99.90
